Time;durP1;ratioP1;P1;durP2;ratioP2;P2;SDS_P1;SDS_P2;PMS_P1;PMS_P2;Temp;Humidity;BMP_temperature;BMP_pressure;BME280_temperature;BME280_humidity;BME280_pressure;Samples;Min_cycle;Max_cycle;Signal;HPM_P1;HPM_P2
2022/04/07 00:01:18;;;;;;;8.95;3.58;;;;;;;;;;6135402;23;20020;-85
2022/04/07 00:03:44;;;;;;;12.10;3.60;;;;;;;;;;6159316;23;20521;-86
2022/04/07 00:06:10;;;;;;;7.93;3.20;;;;;;;;;;6159435;23;20451;-85
2022/04/07 00:08:37;;;;;;;16.42;4.82;;;;;;;;;;6159628;23;20024;-86
2022/04/07 00:11:03;;;;;;;6.78;2.42;;;;;;;;;;6135308;23;20021;-86
2022/04/07 00:13:29;;;;;;;10.02;3.58;;;;;;;;;;6186868;23;20017;-85
2022/04/07 00:15:56;;;;;;;8.93;2.92;;;;;;;;;;6185255;23;20017;-85
2022/04/07 00:18:22;;;;;;;13.88;2.97;;;;;;;;;;6134542;23;20017;-85
2022/04/07 00:20:52;;;;;;;8.13;2.72;;;;;;;;;;6158974;23;20358;-85
2022/04/07 00:23:22;;;;;;;5.30;2.85;;;;;;;;;;6159468;23;20342;-85
2022/04/07 00:25:48;;;;;;;4.22;1.80;;;;;;;;;;6158273;23;20032;-86
2022/04/07 00:28:14;;;;;;;5.90;1.90;;;;;;;;;;6185827;23;20013;-86
2022/04/07 00:30:41;;;;;;;5.43;1.95;;;;;;;;;;6159070;23;20506;-86
2022/04/07 00:33:07;;;;;;;8.88;2.58;;;;;;;;;;6135613;23;20171;-87
2022/04/07 00:35:35;;;;;;;13.68;3.03;;;;;;;;;;6158597;23;20028;-86
2022/04/07 00:38:01;;;;;;;11.25;2.80;;;;;;;;;;6134677;23;20055;-86
2022/04/07 00:40:27;;;;;;;5.68;2.20;;;;;;;;;;6159656;23;20335;-86
2022/04/07 00:42:53;;;;;;;7.20;2.38;;;;;;;;;;6186538;23;20016;-86
2022/04/07 00:45:20;;;;;;;9.32;2.80;;;;;;;;;;6134640;23;20017;-87
2022/04/07 00:47:47;;;;;;;12.27;3.35;;;;;;;;;;6135971;23;20017;-86
2022/04/07 00:50:14;;;;;;;14.75;3.15;;;;;;;;;;6159820;23;20056;-86
2022/04/07 00:52:41;;;;;;;6.82;2.53;;;;;;;;;;6135071;23;20021;-86
2022/04/07 00:55:07;;;;;;;10.20;3.00;;;;;;;;;;6160114;23;20530;-87
2022/04/07 00:57:34;;;;;;;10.07;3.45;;;;;;;;;;6159717;23;20013;-86
2022/04/07 01:00:01;;;;;;;11.98;2.30;;;;;;;;;;6185705;23;20017;-86
2022/04/07 01:02:27;;;;;;;18.90;4.85;;;;;;;;;;6159279;23;20025;-86
2022/04/07 01:04:53;;;;;;;14.63;3.20;;;;;;;;;;6159506;23;20108;-87
2022/04/07 01:07:20;;;;;;;9.50;3.28;;;;;;;;;;6184929;23;20089;-86
2022/04/07 01:09:46;;;;;;;11.70;2.72;;;;;;;;;;6158660;23;20028;-87
2022/04/07 01:12:12;;;;;;;18.55;3.78;;;;;;;;;;6185685;23;20021;-87
2022/04/07 01:15:01;;;;;;;13.32;3.80;;;;;;;;;;6159489;23;20017;-88
2022/04/07 01:17:28;;;;;;;9.45;3.55;;;;;;;;;;6159212;23;20128;-87
2022/04/07 01:19:54;;;;;;;10.75;2.88;;;;;;;;;;6134308;23;20021;-87
2022/04/07 01:22:21;;;;;;;18.02;4.00;;;;;;;;;;6185377;23;20023;-87
2022/04/07 01:24:47;;;;;;;15.88;3.83;;;;;;;;;;6134878;23;20021;-87
2022/04/07 01:27:15;;;;;;;14.57;5.00;;;;;;;;;;6159552;23;20028;-87
2022/04/07 01:29:42;;;;;;;18.35;3.90;;;;;;;;;;6159503;23;20438;-88
2022/04/07 01:32:10;;;;;;;10.13;3.85;;;;;;;;;;6185750;23;20092;-88
2022/04/07 01:34:40;;;;;;;8.65;3.60;;;;;;;;;;6134505;23;20084;-88
2022/04/07 01:37:06;;;;;;;14.55;3.40;;;;;;;;;;6158623;23;20017;-87
2022/04/07 01:39:32;;;;;;;17.98;3.35;;;;;;;;;;6158948;23;20021;-87
2022/04/07 01:41:58;;;;;;;12.52;3.35;;;;;;;;;;6134376;23;20017;-87
2022/04/07 01:44:25;;;;;;;13.27;4.20;;;;;;;;;;6134845;23;20053;-88
2022/04/07 01:46:51;;;;;;;12.70;3.20;;;;;;;;;;6160539;23;20013;-87
2022/04/07 01:49:19;;;;;;;15.55;3.47;;;;;;;;;;6187281;23;20537;-88
2022/04/07 01:51:46;;;;;;;7.88;4.13;;;;;;;;;;6160605;23;20029;-87
2022/04/07 01:54:12;;;;;;;23.33;3.65;;;;;;;;;;6160547;23;20477;-87
2022/04/07 01:56:40;;;;;;;13.57;3.45;;;;;;;;;;6160797;23;20021;-87
2022/04/07 01:59:08;;;;;;;17.85;4.15;;;;;;;;;;6161178;23;20465;-87
2022/04/07 02:01:34;;;;;;;10.93;4.15;;;;;;;;;;6137013;23;20021;-87
2022/04/07 02:04:04;;;;;;;14.00;4.82;;;;;;;;;;6136910;23;20045;-87
2022/04/07 02:06:30;;;;;;;18.23;4.03;;;;;;;;;;6160398;23;20095;-86
2022/04/07 02:08:57;;;;;;;17.70;3.97;;;;;;;;;;6135774;23;20017;-87
2022/04/07 02:11:23;;;;;;;20.30;4.47;;;;;;;;;;6160267;23;20025;-86
2022/04/07 02:13:49;;;;;;;14.07;3.38;;;;;;;;;;6136595;23;20439;-86
2022/04/07 02:16:15;;;;;;;13.32;4.22;;;;;;;;;;6160649;23;20390;-86
2022/04/07 02:18:41;;;;;;;22.45;4.25;;;;;;;;;;6135782;23;20052;-87
2022/04/07 02:21:08;;;;;;;18.33;4.07;;;;;;;;;;6160534;23;20025;-87
2022/04/07 02:23:41;;;;;;;10.05;3.53;;;;;;;;;;6136181;23;20063;-86
2022/04/07 02:26:17;;;;;;;21.92;5.25;;;;;;;;;;6160768;23;20031;-87
2022/04/07 02:28:43;;;;;;;21.15;4.47;;;;;;;;;;6136599;23;20017;-86
2022/04/07 02:31:11;;;;;;;14.93;3.80;;;;;;;;;;6160873;23;20075;-87
2022/04/07 02:33:37;;;;;;;13.60;4.13;;;;;;;;;;6187376;23;20277;-86
2022/04/07 02:36:04;;;;;;;16.80;4.93;;;;;;;;;;6136214;23;20021;-88
2022/04/07 02:38:30;;;;;;;18.58;3.30;;;;;;;;;;6136018;23;20347;-87
2022/04/07 02:40:56;;;;;;;27.67;6.15;;;;;;;;;;6135462;23;20021;-88
2022/04/07 02:43:22;;;;;;;12.73;3.47;;;;;;;;;;6160613;23;20335;-88
2022/04/07 02:45:48;;;;;;;15.68;4.20;;;;;;;;;;6136316;23;20044;-87
2022/04/07 02:48:15;;;;;;;21.02;4.28;;;;;;;;;;6135882;23;20017;-87
2022/04/07 02:50:41;;;;;;;14.07;3.83;;;;;;;;;;6160731;23;20338;-88
2022/04/07 02:53:07;;;;;;;19.52;4.63;;;;;;;;;;6136319;23;20076;-87
2022/04/07 02:55:36;;;;;;;17.40;4.55;;;;;;;;;;6160489;23;20017;-87
2022/04/07 02:58:02;;;;;;;24.55;4.55;;;;;;;;;;6135420;23;20013;-87
2022/04/07 03:00:29;;;;;;;19.88;3.97;;;;;;;;;;6186853;23;20025;-87
2022/04/07 03:02:55;;;;;;;21.30;4.65;;;;;;;;;;6135405;23;20166;-87
2022/04/07 03:05:21;;;;;;;15.15;4.10;;;;;;;;;;6135178;23;20017;-87
2022/04/07 03:07:47;;;;;;;13.98;4.50;;;;;;;;;;6160764;23;20175;-87
2022/04/07 03:10:15;;;;;;;23.90;4.57;;;;;;;;;;6160216;23;20047;-88
2022/04/07 03:12:41;;;;;;;23.90;4.30;;;;;;;;;;6136006;23;20021;-87
2022/04/07 03:15:08;;;;;;;18.88;4.07;;;;;;;;;;6160752;23;20017;-86
2022/04/07 03:17:34;;;;;;;12.25;4.78;;;;;;;;;;6160356;23;20017;-85
2022/04/07 03:20:01;;;;;;;11.35;3.13;;;;;;;;;;6187313;23;20021;-86
2022/04/07 03:22:27;;;;;;;13.77;4.38;;;;;;;;;;6136072;23;20350;-85
2022/04/07 03:24:53;;;;;;;14.07;4.32;;;;;;;;;;6159732;23;20100;-86
2022/04/07 03:27:19;;;;;;;12.43;3.85;;;;;;;;;;6136015;23;20017;-86
2022/04/07 03:29:46;;;;;;;16.70;3.95;;;;;;;;;;6135616;23;20023;-86
2022/04/07 03:32:12;;;;;;;12.18;3.60;;;;;;;;;;6160189;23;20048;-86
2022/04/07 03:34:38;;;;;;;17.70;4.38;;;;;;;;;;6186943;23;20447;-86
2022/04/07 03:37:05;;;;;;;14.93;3.83;;;;;;;;;;6135688;23;20049;-86
2022/04/07 03:39:31;;;;;;;16.65;4.75;;;;;;;;;;6135075;23;20797;-86
2022/04/07 03:41:57;;;;;;;14.65;4.97;;;;;;;;;;6160199;23;20072;-87
2022/04/07 03:44:23;;;;;;;15.57;4.53;;;;;;;;;;6135209;23;20027;-87
2022/04/07 03:46:49;;;;;;;15.50;3.15;;;;;;;;;;6186573;23;20447;-88
2022/04/07 03:49:17;;;;;;;16.13;4.82;;;;;;;;;;6160034;23;20017;-88
2022/04/07 03:51:43;;;;;;;12.85;3.35;;;;;;;;;;6160203;23;20021;-87
2022/04/07 03:54:09;;;;;;;13.82;4.47;;;;;;;;;;6160643;23;20422;-86
2022/04/07 03:56:35;;;;;;;19.52;4.00;;;;;;;;;;6160258;23;20021;-87
2022/04/07 03:59:01;;;;;;;14.48;4.55;;;;;;;;;;6160139;23;20024;-87
2022/04/07 04:01:27;;;;;;;18.63;4.97;;;;;;;;;;6135681;23;20104;-88
2022/04/07 04:03:54;;;;;;;16.80;4.30;;;;;;;;;;6134668;23;20021;-87
2022/04/07 04:06:23;;;;;;;21.73;3.92;;;;;;;;;;6135379;23;20017;-86
2022/04/07 04:08:49;;;;;;;14.20;3.25;;;;;;;;;;6159646;23;20021;-87
2022/04/07 04:11:15;;;;;;;20.58;5.30;;;;;;;;;;6160272;23;20052;-86
2022/04/07 04:13:41;;;;;;;20.08;3.53;;;;;;;;;;6159748;23;20464;-87
2022/04/07 04:16:10;;;;;;;17.25;3.92;;;;;;;;;;6135739;23;20470;-89
2022/04/07 04:18:36;;;;;;;20.25;4.00;;;;;;;;;;6144328;23;20025;-87
2022/04/07 04:21:03;;;;;;;21.42;5.00;;;;;;;;;;6163540;23;20017;-88
2022/04/07 04:23:29;;;;;;;15.13;4.22;;;;;;;;;;6159479;23;20108;-87
2022/04/07 04:25:55;;;;;;;17.48;4.55;;;;;;;;;;6135640;23;20020;-87
2022/04/07 04:28:21;;;;;;;27.60;5.43;;;;;;;;;;6159096;23;20017;-86
2022/04/07 04:30:47;;;;;;;18.65;4.65;;;;;;;;;;6159477;23;20545;-87
2022/04/07 04:33:13;;;;;;;18.80;5.07;;;;;;;;;;6186413;23;20023;-87
2022/04/07 04:35:39;;;;;;;19.33;4.50;;;;;;;;;;6159108;23;20044;-87
2022/04/07 04:38:05;;;;;;;27.83;4.90;;;;;;;;;;6186226;23;20024;-86
2022/04/07 04:40:31;;;;;;;17.52;5.43;;;;;;;;;;6159528;23;20016;-87
2022/04/07 04:43:00;;;;;;;24.67;5.13;;;;;;;;;;6134642;23;20466;-87
2022/04/07 04:45:26;;;;;;;25.95;5.03;;;;;;;;;;6134049;23;20017;-87
2022/04/07 04:47:52;;;;;;;18.67;5.60;;;;;;;;;;6135700;23;20021;-87
2022/04/07 04:50:19;;;;;;;16.90;4.63;;;;;;;;;;6136636;23;20346;-88
2022/04/07 04:52:48;;;;;;;27.63;6.20;;;;;;;;;;6135756;23;20091;-88
2022/04/07 04:55:15;;;;;;;14.23;4.63;;;;;;;;;;6137327;23;20028;-85
2022/04/07 04:57:41;;;;;;;19.33;5.45;;;;;;;;;;6137149;23;20017;-87
2022/04/07 05:00:10;;;;;;;19.48;5.65;;;;;;;;;;6187455;23;20017;-87
2022/04/07 05:02:37;;;;;;;22.27;6.18;;;;;;;;;;6137090;23;20021;-87
2022/04/07 05:05:06;;;;;;;18.92;5.18;;;;;;;;;;6136785;23;20028;-87
2022/04/07 05:07:32;;;;;;;28.10;5.22;;;;;;;;;;6187792;23;20017;-88
2022/04/07 05:09:58;;;;;;;31.08;5.88;;;;;;;;;;6133833;23;20450;-86
2022/04/07 05:12:26;;;;;;;25.52;6.53;;;;;;;;;;6134484;23;20017;-85
2022/04/07 05:14:53;;;;;;;24.38;5.70;;;;;;;;;;6158978;23;20068;-85
2022/04/07 05:17:19;;;;;;;16.75;5.22;;;;;;;;;;6159122;23;20017;-86
2022/04/07 05:19:45;;;;;;;14.95;3.47;;;;;;;;;;6134565;23;20024;-86
2022/04/07 05:22:11;;;;;;;7.47;2.70;;;;;;;;;;6158780;23;20342;-86
2022/04/07 05:24:38;;;;;;;10.32;1.83;;;;;;;;;;6159339;23;20021;-86
2022/04/07 05:27:04;;;;;;;10.93;2.47;;;;;;;;;;6159229;23;20013;-85
2022/04/07 05:29:30;;;;;;;4.32;2.42;;;;;;;;;;6158587;23;20020;-85
2022/04/07 05:31:56;;;;;;;8.10;2.58;;;;;;;;;;6185359;23;20013;-85
2022/04/07 05:34:22;;;;;;;10.15;2.80;;;;;;;;;;6158769;23;20013;-85
2022/04/07 05:36:48;;;;;;;5.63;2.25;;;;;;;;;;6134311;23;20075;-85
2022/04/07 05:39:15;;;;;;;4.90;1.90;;;;;;;;;;6158850;23;20351;-85
2022/04/07 05:41:41;;;;;;;9.07;2.38;;;;;;;;;;6158785;23;20028;-85
2022/04/07 05:44:07;;;;;;;7.68;1.88;;;;;;;;;;6134570;23;20013;-85
2022/04/07 05:46:33;;;;;;;9.50;1.98;;;;;;;;;;6158576;23;20096;-86
2022/04/07 05:48:59;;;;;;;3.00;1.40;;;;;;;;;;6158368;23;20017;-85
2022/04/07 05:51:25;;;;;;;2.63;1.17;;;;;;;;;;6133973;23;20028;-85
2022/04/07 05:53:51;;;;;;;4.32;1.38;;;;;;;;;;6134714;23;20052;-85
2022/04/07 05:56:17;;;;;;;10.32;1.15;;;;;;;;;;6134832;23;20143;-86
2022/04/07 05:58:43;;;;;;;3.33;1.05;;;;;;;;;;6134428;23;20021;-86
2022/04/07 06:01:10;;;;;;;12.10;2.15;;;;;;;;;;6185111;23;20023;-87
2022/04/07 06:03:36;;;;;;;8.77;1.90;;;;;;;;;;6134497;23;20023;-86
2022/04/07 06:06:02;;;;;;;7.40;2.28;;;;;;;;;;6184907;23;20052;-86
2022/04/07 06:08:28;;;;;;;6.15;1.63;;;;;;;;;;6158862;23;20108;-86
2022/04/07 06:10:54;;;;;;;6.30;1.52;;;;;;;;;;6134157;23;20053;-86
2022/04/07 06:13:20;;;;;;;8.15;1.85;;;;;;;;;;6158936;23;20021;-86
2022/04/07 06:15:47;;;;;;;9.63;1.38;;;;;;;;;;6159374;23;20021;-86
2022/04/07 06:18:13;;;;;;;3.35;1.33;;;;;;;;;;6134186;23;20397;-86
2022/04/07 06:20:40;;;;;;;3.58;1.48;;;;;;;;;;6184699;23;20049;-85
2022/04/07 06:23:06;;;;;;;2.25;1.40;;;;;;;;;;6186258;23;20024;-85
2022/04/07 06:25:32;;;;;;;2.67;1.10;;;;;;;;;;6130768;23;20060;-85
2022/04/07 06:28:02;;;;;;;7.90;2.28;;;;;;;;;;6133399;23;20458;-86
2022/04/07 06:30:29;;;;;;;5.40;1.42;;;;;;;;;;6134153;23;20069;-85
2022/04/07 06:32:56;;;;;;;5.18;1.52;;;;;;;;;;6134553;23;20095;-85
2022/04/07 06:35:22;;;;;;;4.15;1.48;;;;;;;;;;6186473;23;20017;-86
2022/04/07 06:37:53;;;;;;;5.28;1.30;;;;;;;;;;6186172;23;20454;-83
2022/04/07 06:40:26;;;;;;;3.47;1.00;;;;;;;;;;6151572;23;20020;-86
2022/04/07 06:42:53;;;;;;;2.00;1.23;;;;;;;;;;6159928;23;20017;-84
2022/04/07 06:45:20;;;;;;;1.85;1.02;;;;;;;;;;6185957;23;20056;-84
2022/04/07 06:47:46;;;;;;;3.00;0.95;;;;;;;;;;6158742;23;20435;-84
2022/04/07 06:50:13;;;;;;;4.55;1.10;;;;;;;;;;6158241;23;20028;-84
2022/04/07 06:52:40;;;;;;;7.78;1.88;;;;;;;;;;6135202;23;20072;-85
2022/04/07 06:55:06;;;;;;;3.30;2.17;;;;;;;;;;6135391;23;20025;-84
2022/04/07 06:57:32;;;;;;;2.13;1.23;;;;;;;;;;6135421;23;20017;-85
2022/04/07 06:59:58;;;;;;;4.70;1.30;;;;;;;;;;6159535;23;20653;-85
2022/04/07 07:02:24;;;;;;;3.10;0.95;;;;;;;;;;6159266;23;20458;-85
2022/04/07 07:04:51;;;;;;;3.30;1.00;;;;;;;;;;6159397;23;20017;-84
2022/04/07 07:07:17;;;;;;;2.83;1.35;;;;;;;;;;6135841;23;20021;-85
2022/04/07 07:09:43;;;;;;;4.65;1.08;;;;;;;;;;6185120;23;20501;-85
2022/04/07 07:12:09;;;;;;;3.15;1.20;;;;;;;;;;6185892;23;20021;-85
2022/04/07 07:14:35;;;;;;;3.53;1.70;;;;;;;;;;6135323;23;20450;-84
2022/04/07 07:17:01;;;;;;;5.32;1.00;;;;;;;;;;6135815;23;20076;-85
2022/04/07 07:19:28;;;;;;;4.03;1.25;;;;;;;;;;6159664;23;20040;-84
2022/04/07 07:21:55;;;;;;;3.22;2.17;;;;;;;;;;6134400;23;20017;-84
2022/04/07 07:24:21;;;;;;;1.42;1.33;;;;;;;;;;6134980;23;20451;-84
2022/04/07 07:26:47;;;;;;;4.53;1.27;;;;;;;;;;6134907;23;20032;-84
2022/04/07 07:29:13;;;;;;;3.90;1.30;;;;;;;;;;6158757;23;20020;-85
2022/04/07 07:31:39;;;;;;;2.65;1.00;;;;;;;;;;6161128;23;20143;-85
2022/04/07 07:34:05;;;;;;;2.65;1.30;;;;;;;;;;6136573;23;20020;-84
2022/04/07 07:36:32;;;;;;;8.98;1.30;;;;;;;;;;6136740;23;20013;-84
2022/04/07 07:38:58;;;;;;;6.03;1.77;;;;;;;;;;6161393;23;20406;-90
2022/04/07 07:41:24;;;;;;;2.92;1.30;;;;;;;;;;6137011;23;20021;-89
2022/04/07 07:43:53;;;;;;;3.78;1.40;;;;;;;;;;6136544;23;20020;-90
2022/04/07 07:46:27;;;;;;;5.32;1.42;;;;;;;;;;6134932;23;20021;-89
2022/04/07 07:48:56;;;;;;;2.35;1.48;;;;;;;;;;6133927;23;20013;-88
2022/04/07 07:51:31;;;;;;;10.13;2.20;;;;;;;;;;6134745;23;20023;-88
2022/04/07 07:54:12;;;;;;;5.47;1.63;;;;;;;;;;6186356;23;20052;-89
2022/04/07 07:56:38;;;;;;;8.20;1.30;;;;;;;;;;6134884;23;20069;-89
2022/04/07 07:59:10;;;;;;;5.80;1.40;;;;;;;;;;6159802;23;20028;-89
2022/04/07 08:01:36;;;;;;;8.60;1.30;;;;;;;;;;6187825;23;20049;-89
2022/04/07 08:04:02;;;;;;;3.95;1.75;;;;;;;;;;6135178;23;20021;-90
2022/04/07 08:06:29;;;;;;;6.43;1.38;;;;;;;;;;6160589;23;20017;-90
2022/04/07 08:08:55;;;;;;;2.03;1.30;;;;;;;;;;6160667;23;20028;-90
2022/04/07 08:11:50;;;;;;;5.90;1.73;;;;;;;;;;6187039;23;20048;-89
2022/04/07 08:14:30;;;;;;;5.47;1.40;;;;;;;;;;6159005;23;20017;-92
2022/04/07 08:17:01;;;;;;;7.88;1.20;;;;;;;;;;6160462;23;20028;-90
2022/04/07 08:19:28;;;;;;;6.35;2.20;;;;;;;;;;6135663;23;20095;-90
2022/04/07 08:21:54;;;;;;;6.68;1.55;;;;;;;;;;6135103;23;20051;-89
2022/04/07 08:24:33;;;;;;;6.53;1.52;;;;;;;;;;6134133;23;20017;-90
2022/04/07 08:26:59;;;;;;;4.45;1.38;;;;;;;;;;6135546;23;20481;-87
2022/04/07 08:29:28;;;;;;;4.22;1.88;;;;;;;;;;6133758;23;20045;-90
2022/04/07 08:31:56;;;;;;;3.35;1.40;;;;;;;;;;6153293;23;20104;-89
2022/04/07 08:34:25;;;;;;;4.10;1.40;;;;;;;;;;6134863;23;20013;-89
2022/04/07 08:37:09;;;;;;;6.60;2.03;;;;;;;;;;6159636;23;20027;-91
2022/04/07 08:42:37;;;;;;;6.20;1.40;;;;;;;;;;6041587;23;20061;-91
2022/04/07 08:45:12;;;;;;;4.88;1.80;;;;;;;;;;6019723;23;20019;-89
2022/04/07 08:47:40;;;;;;;4.35;1.25;;;;;;;;;;6009640;23;20015;-90
2022/04/07 08:50:07;;;;;;;6.55;1.67;;;;;;;;;;6017944;23;20030;-88
2022/04/07 08:52:33;;;;;;;6.47;1.70;;;;;;;;;;6041079;23;20461;-91
2022/04/07 08:54:59;;;;;;;12.88;1.70;;;;;;;;;;6017930;23;20023;-89
2022/04/07 08:57:27;;;;;;;5.57;1.48;;;;;;;;;;6041720;23;20098;-89
2022/04/07 08:59:53;;;;;;;6.63;1.80;;;;;;;;;;6042152;23;20026;-89
2022/04/07 09:02:19;;;;;;;6.30;1.60;;;;;;;;;;6019272;23;20015;-88
2022/04/07 09:04:47;;;;;;;1.38;1.17;;;;;;;;;;6066312;23;20022;-91
2022/04/07 09:07:16;;;;;;;4.28;1.95;;;;;;;;;;6018705;23;20027;-87
2022/04/07 09:09:42;;;;;;;5.70;1.63;;;;;;;;;;6041307;23;20018;-89
2022/04/07 09:12:08;;;;;;;4.82;1.92;;;;;;;;;;6017352;23;20026;-88
2022/04/07 09:14:35;;;;;;;2.92;1.20;;;;;;;;;;6017053;23;20030;-87
2022/04/07 09:17:01;;;;;;;8.23;1.80;;;;;;;;;;6065884;23;20011;-87
2022/04/07 09:19:30;;;;;;;11.77;4.13;;;;;;;;;;6073408;23;20029;-89
2022/04/07 09:22:06;;;;;;;7.13;2.15;;;;;;;;;;6158311;23;20020;-88
2022/04/07 09:24:36;;;;;;;6.50;1.60;;;;;;;;;;6159008;23;20382;-88
2022/04/07 09:27:06;;;;;;;7.10;2.33;;;;;;;;;;6158774;23;20048;-89
2022/04/07 09:29:42;;;;;;;5.55;2.28;;;;;;;;;;6159421;23;20072;-87
2022/04/07 09:32:19;;;;;;;12.30;1.90;;;;;;;;;;6184727;23;20473;-89
2022/04/07 09:34:45;;;;;;;8.90;1.77;;;;;;;;;;6134495;23;20048;-89
2022/04/07 09:37:12;;;;;;;10.63;1.42;;;;;;;;;;6134335;23;20377;-87
2022/04/07 09:39:40;;;;;;;6.97;2.92;;;;;;;;;;6158500;23;20350;-88
2022/04/07 09:42:23;;;;;;;7.15;2.38;;;;;;;;;;6133328;23;20021;-85
2022/04/07 09:44:53;;;;;;;3.70;1.85;;;;;;;;;;6133692;23;20021;-86
2022/04/07 09:47:20;;;;;;;7.68;2.25;;;;;;;;;;6184508;23;20354;-87
2022/04/07 09:49:47;;;;;;;5.43;2.08;;;;;;;;;;6157932;23;20017;-86
2022/04/07 09:52:14;;;;;;;8.18;1.90;;;;;;;;;;6133125;23;20442;-85
2022/04/07 09:54:44;;;;;;;8.98;1.85;;;;;;;;;;6133953;23;20021;-86
2022/04/07 09:57:10;;;;;;;5.97;2.13;;;;;;;;;;6133926;23;20056;-86
2022/04/07 09:59:38;;;;;;;10.88;2.15;;;;;;;;;;6158427;23;20013;-86
2022/04/07 10:02:06;;;;;;;10.05;1.70;;;;;;;;;;6133751;23;20021;-87
2022/04/07 10:04:34;;;;;;;6.03;2.25;;;;;;;;;;6133343;23;20013;-86
2022/04/07 10:07:02;;;;;;;10.68;2.80;;;;;;;;;;6159032;23;20075;-86
2022/04/07 10:09:29;;;;;;;6.00;2.03;;;;;;;;;;6160190;23;20048;-86
2022/04/07 10:11:56;;;;;;;3.25;1.80;;;;;;;;;;6186812;23;20028;-86
2022/04/07 10:14:24;;;;;;;10.77;2.25;;;;;;;;;;6159356;23;20021;-88
2022/04/07 10:16:50;;;;;;;6.47;1.67;;;;;;;;;;6136002;23;20454;-87
2022/04/07 10:19:22;;;;;;;7.82;1.80;;;;;;;;;;6136503;23;20354;-86
2022/04/07 10:21:56;;;;;;;5.13;2.35;;;;;;;;;;6187026;23;20562;-86
2022/04/07 10:24:34;;;;;;;7.47;1.45;;;;;;;;;;6185790;23;20028;-87
2022/04/07 10:27:02;;;;;;;7.88;1.52;;;;;;;;;;6135180;23;20017;-87
2022/04/07 10:29:29;;;;;;;9.63;1.67;;;;;;;;;;6159877;23;20032;-87
2022/04/07 10:32:19;;;;;;;6.03;1.98;;;;;;;;;;6160001;23;20056;-85
2022/04/07 10:34:56;;;;;;;7.78;2.10;;;;;;;;;;6136273;23;20084;-86
2022/04/07 10:37:29;;;;;;;9.43;3.17;;;;;;;;;;6135096;23;20020;-86
2022/04/07 10:39:55;;;;;;;6.82;3.45;;;;;;;;;;6186603;23;20017;-86
2022/04/07 10:42:41;;;;;;;10.25;2.30;;;;;;;;;;6160534;23;20025;-86
2022/04/07 10:45:08;;;;;;;12.27;2.67;;;;;;;;;;6135628;23;20148;-87
2022/04/07 10:47:34;;;;;;;7.35;2.38;;;;;;;;;;6186442;23;20021;-87
2022/04/07 10:50:00;;;;;;;12.88;4.30;;;;;;;;;;6135932;23;20052;-86
2022/04/07 10:52:27;;;;;;;10.18;3.00;;;;;;;;;;6160091;23;20332;-86
2022/04/07 10:55:13;;;;;;;4.40;2.13;;;;;;;;;;6160429;23;20351;-87
2022/04/07 10:57:58;;;;;;;10.20;2.88;;;;;;;;;;6159454;23;20346;-86
2022/04/07 11:00:37;;;;;;;10.63;2.45;;;;;;;;;;6185596;23;20017;-85
2022/04/07 11:03:14;;;;;;;10.35;2.08;;;;;;;;;;6134790;23;20056;-90
2022/04/07 11:05:54;;;;;;;10.32;2.28;;;;;;;;;;6158621;23;20027;-89
2022/04/07 11:08:23;;;;;;;10.10;2.55;;;;;;;;;;6158696;23;20450;-86
2022/04/07 11:10:50;;;;;;;3.10;1.70;;;;;;;;;;6159092;23;20060;-91
2022/04/07 11:13:17;;;;;;;11.82;2.42;;;;;;;;;;6185755;23;20044;-88
2022/04/07 11:15:49;;;;;;;11.88;3.75;;;;;;;;;;6160099;23;20405;-92
2022/04/07 11:18:31;;;;;;;9.68;2.60;;;;;;;;;;6159728;23;20438;-89
2022/04/07 11:21:02;;;;;;;7.90;2.58;;;;;;;;;;6134074;23;20021;-84
2022/04/07 11:23:47;;;;;;;7.00;2.40;;;;;;;;;;6160083;23;20091;-88
2022/04/07 11:26:23;;;;;;;8.73;2.58;;;;;;;;;;6158796;23;20060;-90
2022/04/07 11:28:59;;;;;;;13.77;2.95;;;;;;;;;;6186126;23;20462;-88
2022/04/07 11:31:45;;;;;;;7.88;2.50;;;;;;;;;;6134081;23;20021;-88
2022/04/07 11:34:30;;;;;;;13.05;3.03;;;;;;;;;;6136036;23;20028;-87
2022/04/07 11:36:56;;;;;;;10.20;2.47;;;;;;;;;;6162273;23;20024;-89
2022/04/07 11:39:23;;;;;;;9.63;2.88;;;;;;;;;;6134789;23;20080;-88
2022/04/07 11:41:59;;;;;;;9.95;2.90;;;;;;;;;;6161202;23;20024;-88
2022/04/07 11:44:26;;;;;;;11.98;3.25;;;;;;;;;;6160363;23;20021;-87
2022/04/07 11:46:52;;;;;;;11.55;4.05;;;;;;;;;;6134211;23;20438;-87
2022/04/07 11:49:18;;;;;;;9.20;4.55;;;;;;;;;;6159790;23;20507;-85
2022/04/07 11:51:45;;;;;;;5.75;2.75;;;;;;;;;;6185899;23;20021;-86
2022/04/07 11:54:15;;;;;;;13.45;3.28;;;;;;;;;;6186125;23;20013;-86
2022/04/07 11:56:41;;;;;;;14.82;2.70;;;;;;;;;;6185509;23;20450;-87
2022/04/07 11:59:12;;;;;;;9.75;2.03;;;;;;;;;;6159063;23;20024;-86
2022/04/07 12:01:39;;;;;;;5.93;2.17;;;;;;;;;;6159192;23;20349;-87
2022/04/07 12:04:06;;;;;;;7.57;2.17;;;;;;;;;;6159756;23;20016;-87
2022/04/07 12:06:36;;;;;;;8.25;2.05;;;;;;;;;;6161069;23;20024;-87
2022/04/07 12:09:08;;;;;;;9.02;2.13;;;;;;;;;;6158441;23;20450;-86
2022/04/07 12:11:36;;;;;;;4.18;2.38;;;;;;;;;;6159062;23;20021;-85
2022/04/07 12:14:06;;;;;;;5.22;1.85;;;;;;;;;;6186371;23;20087;-86
2022/04/07 12:16:34;;;;;;;6.22;2.22;;;;;;;;;;6159776;23;20048;-86
2022/04/07 12:19:04;;;;;;;9.48;2.50;;;;;;;;;;6186942;23;20025;-87
2022/04/07 12:21:49;;;;;;;5.35;2.05;;;;;;;;;;6160061;23;20013;-87
2022/04/07 12:24:16;;;;;;;5.63;1.80;;;;;;;;;;6158967;23;20019;-88
2022/04/07 12:26:43;;;;;;;2.90;1.20;;;;;;;;;;6159347;23;20059;-88
2022/04/07 12:29:13;;;;;;;1.50;0.82;;;;;;;;;;6159476;23;20013;-88
2022/04/07 12:31:39;;;;;;;4.40;1.20;;;;;;;;;;6158274;23;20031;-87
2022/04/07 12:34:12;;;;;;;6.20;1.45;;;;;;;;;;6135091;23;20013;-86
2022/04/07 12:36:42;;;;;;;3.92;1.60;;;;;;;;;;6135007;23;20100;-87
2022/04/07 12:39:11;;;;;;;7.32;2.15;;;;;;;;;;6159229;23;20031;-91
2022/04/07 12:41:42;;;;;;;3.63;2.10;;;;;;;;;;6158790;23;20052;-88
2022/04/07 12:44:09;;;;;;;9.27;2.35;;;;;;;;;;6159088;23;20418;-90
2022/04/07 12:46:44;;;;;;;5.60;1.88;;;;;;;;;;6159407;23;20443;-88
2022/04/07 12:49:10;;;;;;;8.68;3.40;;;;;;;;;;6135241;23;20017;-87
2022/04/07 12:51:36;;;;;;;9.15;2.25;;;;;;;;;;6158266;23;20017;-88
2022/04/07 12:54:07;;;;;;;11.55;3.22;;;;;;;;;;6158882;23;20033;-87
2022/04/07 12:56:33;;;;;;;6.15;1.65;;;;;;;;;;6159005;23;20474;-89
2022/04/07 12:59:04;;;;;;;8.00;2.78;;;;;;;;;;6134699;23;20017;-86
2022/04/07 13:01:30;;;;;;;10.13;3.08;;;;;;;;;;6158399;23;20017;-87
2022/04/07 13:03:57;;;;;;;27.65;3.10;;;;;;;;;;6134460;23;20055;-88
2022/04/07 13:06:23;;;;;;;6.72;2.92;;;;;;;;;;6159157;23;20454;-90
2022/04/07 13:08:49;;;;;;;4.82;2.05;;;;;;;;;;6159447;23;20021;-88
2022/04/07 13:11:35;;;;;;;8.57;2.42;;;;;;;;;;6184553;23;20057;-85
2022/04/07 13:14:02;;;;;;;4.38;2.20;;;;;;;;;;6159661;23;20025;-87
2022/04/07 13:16:29;;;;;;;4.70;1.77;;;;;;;;;;6135157;23;20025;-86
2022/04/07 13:18:55;;;;;;;2.03;1.42;;;;;;;;;;6159866;23;20017;-85
2022/04/07 13:21:21;;;;;;;3.13;1.15;;;;;;;;;;6134138;23;20387;-86
2022/04/07 13:23:47;;;;;;;4.25;1.42;;;;;;;;;;6185328;23;20013;-86
2022/04/07 13:26:13;;;;;;;5.53;1.40;;;;;;;;;;6135281;23;20021;-85
2022/04/07 13:28:42;;;;;;;2.08;1.63;;;;;;;;;;6160060;23;20139;-86
2022/04/07 13:31:08;;;;;;;3.67;1.55;;;;;;;;;;6133865;23;20021;-86
2022/04/07 13:33:34;;;;;;;6.00;1.40;;;;;;;;;;6158761;23;20350;-90
2022/04/07 13:36:00;;;;;;;2.50;1.80;;;;;;;;;;6185167;23;20021;-86
2022/04/07 13:38:26;;;;;;;3.65;1.90;;;;;;;;;;6158697;23;20701;-87
2022/04/07 13:40:53;;;;;;;4.00;2.13;;;;;;;;;;6159080;23;20021;-84
2022/04/07 13:43:19;;;;;;;3.65;1.33;;;;;;;;;;6157458;23;20021;-85
2022/04/07 13:45:45;;;;;;;5.47;1.52;;;;;;;;;;6133042;23;20016;-85
2022/04/07 13:48:14;;;;;;;3.65;1.10;;;;;;;;;;6184616;23;20017;-89
2022/04/07 13:50:41;;;;;;;5.05;1.88;;;;;;;;;;6134523;23;20513;-86
2022/04/07 13:53:10;;;;;;;3.17;1.38;;;;;;;;;;6184553;23;20465;-86
2022/04/07 13:55:36;;;;;;;2.88;1.30;;;;;;;;;;6185562;23;20075;-86
2022/04/07 13:58:02;;;;;;;7.35;2.05;;;;;;;;;;6185478;23;20049;-85
2022/04/07 14:00:28;;;;;;;4.80;1.30;;;;;;;;;;6158163;23;20025;-86
2022/04/07 14:02:55;;;;;;;3.38;1.17;;;;;;;;;;6133594;23;20386;-86
2022/04/07 14:05:21;;;;;;;3.50;1.13;;;;;;;;;;6159481;23;20055;-85
2022/04/07 14:07:47;;;;;;;2.83;1.25;;;;;;;;;;6158258;23;20230;-87
2022/04/07 14:10:14;;;;;;;3.95;2.10;;;;;;;;;;6158548;23;20100;-86
2022/04/07 14:12:41;;;;;;;5.90;1.73;;;;;;;;;;6159038;23;20029;-86
2022/04/07 14:15:07;;;;;;;9.70;2.00;;;;;;;;;;6158438;23;20013;-86
2022/04/07 14:17:34;;;;;;;9.85;2.20;;;;;;;;;;6159296;23;20072;-88
2022/04/07 14:20:00;;;;;;;8.20;1.33;;;;;;;;;;6135342;23;20096;-88
2022/04/07 14:22:26;;;;;;;10.88;2.15;;;;;;;;;;6159814;23;20017;-87
2022/04/07 14:24:52;;;;;;;3.05;1.42;;;;;;;;;;6135008;23;20339;-86
2022/04/07 14:27:18;;;;;;;8.43;1.88;;;;;;;;;;6134591;23;20394;-87
2022/04/07 14:29:44;;;;;;;5.68;1.90;;;;;;;;;;6159701;23;20017;-88
2022/04/07 14:32:10;;;;;;;9.07;2.35;;;;;;;;;;6133806;23;20025;-85
2022/04/07 14:34:37;;;;;;;5.93;1.88;;;;;;;;;;6159029;23;20028;-85
2022/04/07 14:37:03;;;;;;;8.50;2.88;;;;;;;;;;6160087;23;20023;-88
2022/04/07 14:39:29;;;;;;;3.70;2.10;;;;;;;;;;6159671;23;20028;-89
2022/04/07 14:41:55;;;;;;;4.45;1.98;;;;;;;;;;6158751;23;20035;-89
2022/04/07 14:44:21;;;;;;;5.57;2.20;;;;;;;;;;6134364;23;20088;-87
2022/04/07 14:46:47;;;;;;;6.53;2.85;;;;;;;;;;6158458;23;20036;-86